createdAt,value
2018-07-05T00:00:52.596Z,99.99
2018-07-05T00:01:52.587Z,99.99
2018-07-05T00:02:52.316Z,99.99
2018-07-05T00:03:52.304Z,99.99
2018-07-05T00:04:52.568Z,99.99
2018-07-05T00:05:52.551Z,99.99
2018-07-05T00:06:52.275Z,99.99
2018-07-05T00:07:52.533Z,99.99
2018-07-05T00:08:52.523Z,99.99
2018-07-05T00:09:52.253Z,99.99
2018-07-05T00:10:52.242Z,99.99
2018-07-05T00:11:52.229Z,99.99
2018-07-05T00:12:52.489Z,99.99
2018-07-05T00:13:52.212Z,99.99
2018-07-05T00:14:52.203Z,99.99
2018-07-05T00:15:52.465Z,99.99
2018-07-05T00:16:52.449Z,99.99
2018-07-05T00:17:52.441Z,99.99
2018-07-05T00:18:52.435Z,99.99
2018-07-05T00:19:52.427Z,99.99
2018-07-05T00:20:52.414Z,99.99
2018-07-05T00:21:52.404Z,99.99
2018-07-05T00:22:52.131Z,99.99
2018-07-05T00:23:52.123Z,99.99
2018-07-05T00:24:52.373Z,99.99
2018-07-05T00:25:52.365Z,99.99
2018-07-05T00:26:52.093Z,99.99
2018-07-05T00:27:52.353Z,99.99
2018-07-05T00:28:52.339Z,99.99
2018-07-05T00:29:52.062Z,99.99
2018-07-05T00:30:52.316Z,99.99
2018-07-05T00:31:52.312Z,99.99
2018-07-05T00:32:52.303Z,99.99
2018-07-05T00:33:52.290Z,99.99
2018-07-05T00:34:52.278Z,99.99
2018-07-05T00:35:52.272Z,99.99
2018-07-05T00:36:52.264Z,99.99
2018-07-05T00:37:52.260Z,99.99
2018-07-05T00:38:52.244Z,99.99
2018-07-05T00:39:52.238Z,99.99
2018-07-05T00:40:52.223Z,99.99
2018-07-05T00:41:51.951Z,99.99
2018-07-05T00:42:52.207Z,99.99
2018-07-05T00:43:52.195Z,99.99
2018-07-05T00:44:52.185Z,99.99
2018-07-05T00:45:52.183Z,99.99
2018-07-05T00:46:51.906Z,99.99
2018-07-05T00:47:52.155Z,99.99
2018-07-05T00:48:52.145Z,99.99
2018-07-05T00:49:52.137Z,99.99
2018-07-05T00:50:51.869Z,99.99
2018-07-05T00:51:52.118Z,99.99
2018-07-05T00:52:51.846Z,99.99
2018-07-05T00:53:52.099Z,99.99
2018-07-05T00:54:52.098Z,99.99
2018-07-05T00:55:51.818Z,99.99
2018-07-05T00:56:52.073Z,99.99
2018-07-05T00:57:52.064Z,99.99
2018-07-05T00:58:52.050Z,99.99
2018-07-05T00:59:52.046Z,99.99
2018-07-05T01:00:52.030Z,99.99
2018-07-05T01:01:51.756Z,99.99
2018-07-05T01:02:52.012Z,99.99
2018-07-05T01:03:52.003Z,99.99
2018-07-05T01:04:51.995Z,99.99
2018-07-05T01:05:51.985Z,99.99
2018-07-05T01:06:51.710Z,99.99
2018-07-05T01:07:51.960Z,99.99
2018-07-05T01:08:51.689Z,99.99
2018-07-05T01:09:51.945Z,99.99
2018-07-05T01:10:51.939Z,99.99
2018-07-05T01:11:51.925Z,99.99
2018-07-05T01:12:51.648Z,99.99
2018-07-05T01:13:51.901Z,99.99
2018-07-05T01:14:51.895Z,99.99
2018-07-05T01:15:51.884Z,99.99
2018-07-05T01:16:51.609Z,99.99
2018-07-05T01:17:51.600Z,99.99
2018-07-05T01:18:51.854Z,99.99
2018-07-05T01:19:51.844Z,99.99
2018-07-05T01:20:51.832Z,99.99
2018-07-05T01:21:51.561Z,99.99
2018-07-05T01:22:51.812Z,99.99
2018-07-05T01:23:51.538Z,99.99
2018-07-05T01:24:51.793Z,99.99
2018-07-05T01:25:51.522Z,99.99
2018-07-05T01:26:51.510Z,99.99
2018-07-05T01:27:51.498Z,99.99
2018-07-05T01:28:51.755Z,99.99
2018-07-05T01:29:51.749Z,99.99
2018-07-05T01:30:51.733Z,99.99
2018-07-05T01:31:51.723Z,99.99
2018-07-05T01:32:51.455Z,99.99
2018-07-05T01:33:51.709Z,99.99
2018-07-05T01:34:51.699Z,99.99
2018-07-05T01:35:51.683Z,99.99
2018-07-05T01:36:51.411Z,99.99
2018-07-05T01:37:51.670Z,99.99
2018-07-05T01:38:51.658Z,99.99
2018-07-05T01:39:51.644Z,99.99
2018-07-05T01:40:51.371Z,99.99
2018-07-05T01:41:51.878Z,99.99
2018-07-05T01:42:51.612Z,99.99
2018-07-05T01:43:51.603Z,99.99
2018-07-05T01:44:51.332Z,99.99
2018-07-05T01:45:51.592Z,99.99
2018-07-05T01:46:51.311Z,99.99
2018-07-05T01:47:51.566Z,99.99
2018-07-05T01:48:51.291Z,99.99
2018-07-05T01:49:51.544Z,99.99
2018-07-05T01:50:51.541Z,99.99
2018-07-05T01:51:51.523Z,99.99
2018-07-05T01:52:51.513Z,99.99
2018-07-05T01:53:51.505Z,99.99
2018-07-05T01:54:51.494Z,99.99
2018-07-05T01:55:51.487Z,99.99
2018-07-05T01:56:51.208Z,99.99
2018-07-05T01:57:51.462Z,99.99
2018-07-05T01:58:51.454Z,99.99
2018-07-05T01:59:51.442Z,99.99
2018-07-05T02:00:51.433Z,99.99
2018-07-05T02:01:51.160Z,99.99
2018-07-05T02:02:51.153Z,99.99
2018-07-05T02:03:51.415Z,99.99
2018-07-05T02:04:51.391Z,99.99
2018-07-05T02:05:51.384Z,99.99
2018-07-05T02:06:51.116Z,99.99
2018-07-05T02:07:51.362Z,99.99
2018-07-05T02:08:51.356Z,99.99
2018-07-05T02:09:51.348Z,99.99
2018-07-05T02:10:51.333Z,99.99
2018-07-05T02:11:51.060Z,99.99
2018-07-05T02:12:51.052Z,99.99
2018-07-05T02:13:51.040Z,99.99
2018-07-05T02:14:51.289Z,99.99
2018-07-05T02:15:51.282Z,99.99
2018-07-05T02:16:51.276Z,99.99
2018-07-05T02:17:51.263Z,99.99
2018-07-05T02:18:50.986Z,99.99
2018-07-05T02:19:51.238Z,99.99
2018-07-05T02:20:51.229Z,99.99
2018-07-05T02:21:50.954Z,99.99
2018-07-05T02:22:51.213Z,99.99
2018-07-05T02:23:51.197Z,99.99
2018-07-05T02:24:51.190Z,99.99
2018-07-05T02:25:51.187Z,99.99
2018-07-05T02:26:50.906Z,99.99
2018-07-05T02:27:50.893Z,99.99
2018-07-05T02:28:51.147Z,99.99
2018-07-05T02:29:51.137Z,99.99
2018-07-05T02:30:50.862Z,99.99
2018-07-05T02:31:51.121Z,99.99
2018-07-05T02:32:50.844Z,99.99
2018-07-05T02:33:51.107Z,99.99
2018-07-05T02:34:50.828Z,99.99
2018-07-05T02:35:51.079Z,99.99
2018-07-05T02:36:51.069Z,99.99
2018-07-05T02:37:51.059Z,99.99
2018-07-05T02:38:50.778Z,99.99
2018-07-05T02:39:51.033Z,99.99
2018-07-05T02:40:51.031Z,99.99
2018-07-05T02:41:50.750Z,99.99
2018-07-05T02:42:50.998Z,99.99
2018-07-05T02:43:50.731Z,99.99
2018-07-05T02:44:50.723Z,99.99
2018-07-05T02:45:50.969Z,99.99
2018-07-05T02:46:50.961Z,99.99
2018-07-05T02:47:50.691Z,99.99
2018-07-05T02:48:50.964Z,99.99
2018-07-05T02:49:50.929Z,99.99
2018-07-05T02:50:50.917Z,99.99
2018-07-05T02:51:50.645Z,99.99
2018-07-05T02:52:50.896Z,99.99
2018-07-05T02:53:50.886Z,99.99
2018-07-05T02:54:50.881Z,99.99
2018-07-05T02:55:50.600Z,99.99
2018-07-05T02:56:50.594Z,99.99
2018-07-05T02:57:50.588Z,99.99
2018-07-05T02:58:50.852Z,99.99
2018-07-05T02:59:50.821Z,99.99
2018-07-05T03:00:50.808Z,99.99
2018-07-05T03:01:50.797Z,99.99
2018-07-05T03:02:50.791Z,99.99
2018-07-05T03:03:50.517Z,99.99
2018-07-05T03:04:50.511Z,99.68
2018-07-05T03:05:50.494Z,98.96
2018-07-05T03:06:50.756Z,98.77
2018-07-05T03:07:50.740Z,98.86
2018-07-05T03:08:50.466Z,98.58
2018-07-05T03:09:50.716Z,98.67
2018-07-05T03:10:50.443Z,98.67
2018-07-05T03:11:50.689Z,98.77
2018-07-05T03:12:50.685Z,98.67
2018-07-05T03:13:50.413Z,97.71
2018-07-05T03:14:50.396Z,97.33
2018-07-05T03:15:50.666Z,97.14
2018-07-05T03:16:50.638Z,97.04
2018-07-05T03:17:50.635Z,96.85
2018-07-05T03:18:50.615Z,96.08
2018-07-05T03:19:50.606Z,96.18
2018-07-05T03:20:50.594Z,95.98
2018-07-05T03:21:50.581Z,96.18
2018-07-05T03:22:50.572Z,95.7
2018-07-05T03:23:50.559Z,96.18
2018-07-05T03:24:50.288Z,95.98
2018-07-05T03:25:50.278Z,95.98
2018-07-05T03:26:50.265Z,95.89
2018-07-05T03:27:50.521Z,95.6
2018-07-05T03:28:50.505Z,95.03
2018-07-05T03:29:50.492Z,95.21
2018-07-05T03:30:50.219Z,94.64
2018-07-05T03:31:50.215Z,94.74
2018-07-05T03:32:50.464Z,95.03
2018-07-05T03:33:50.449Z,93.77
2018-07-05T03:34:50.179Z,94.45
2018-07-05T03:35:50.445Z,93.97
2018-07-05T03:36:50.153Z,93.3
2018-07-05T03:37:50.150Z,92.82
2018-07-05T03:38:50.402Z,92.53
2018-07-05T03:39:50.388Z,92.14
2018-07-05T03:40:50.377Z,92.14
2018-07-05T03:41:50.360Z,92.63
2018-07-05T03:42:50.350Z,92.24
2018-07-05T03:43:50.339Z,92.67
2018-07-05T03:44:50.065Z,92.96
2018-07-05T03:45:50.055Z,92.19
2018-07-05T03:46:50.310Z,93.05
2018-07-05T03:47:50.041Z,92.77
2018-07-05T03:48:50.024Z,92.96
2018-07-05T03:49:50.275Z,94.31
2018-07-05T03:50:50.009Z,94.21
2018-07-05T03:51:49.990Z,93.92
2018-07-05T03:52:50.241Z,93.92
2018-07-05T03:53:49.968Z,94.4
2018-07-05T03:54:50.220Z,94.78
2018-07-05T03:55:49.948Z,94.69
2018-07-05T03:56:50.208Z,95.07
2018-07-05T03:57:50.189Z,94.98
2018-07-05T03:58:49.919Z,95.17
2018-07-05T03:59:50.166Z,95.07
2018-07-05T04:00:49.900Z,95.26
2018-07-05T04:01:50.146Z,95.17
2018-07-05T04:02:50.142Z,95.26
2018-07-05T04:03:50.124Z,95.55
2018-07-05T04:04:50.122Z,95.55
2018-07-05T04:05:50.102Z,95.65
2018-07-05T04:06:49.827Z,95.75
2018-07-05T04:07:50.089Z,95.55
2018-07-05T04:08:49.805Z,95.84
2018-07-05T04:09:50.061Z,95.36
2018-07-05T04:10:50.052Z,95.75
2018-07-05T04:11:50.042Z,95.45
2018-07-05T04:12:49.762Z,95.45
2018-07-05T04:13:49.750Z,95.65
2018-07-05T04:14:50.009Z,95.55
2018-07-05T04:15:50.103Z,95.31
2018-07-05T04:16:49.984Z,95.12
2018-07-05T04:17:49.708Z,95.5
2018-07-05T04:18:49.961Z,95.12
2018-07-05T04:19:49.952Z,95.98
2018-07-05T04:20:49.953Z,95.98
2018-07-05T04:21:49.930Z,95.98
2018-07-05T04:22:49.919Z,95.21
2018-07-05T04:23:49.647Z,95.5
2018-07-05T04:24:49.898Z,95.03
2018-07-05T04:25:49.625Z,95.12
2018-07-05T04:26:49.882Z,95.31
2018-07-05T04:27:49.866Z,95.31
2018-07-05T04:28:49.593Z,95.03
2018-07-05T04:29:49.582Z,95.31
2018-07-05T04:30:49.835Z,95.12
2018-07-05T04:31:49.565Z,94.73
2018-07-05T04:32:49.812Z,94.54
2018-07-05T04:33:49.539Z,94.73
2018-07-05T04:34:49.802Z,93.96
2018-07-05T04:35:49.513Z,94.06
2018-07-05T04:36:49.774Z,94.06
2018-07-05T04:37:49.496Z,94.35
2018-07-05T04:38:49.749Z,94.45
2018-07-05T04:39:49.740Z,94.06
2018-07-05T04:40:49.729Z,94.26
2018-07-05T04:41:49.459Z,93.1
2018-07-05T04:42:49.711Z,93.49
2018-07-05T04:43:49.431Z,93.29
2018-07-05T04:44:49.692Z,93.39
2018-07-05T04:45:49.676Z,93.96
2018-07-05T04:46:49.404Z,94.26
2018-07-05T04:47:49.685Z,93.49
2018-07-05T04:48:49.378Z,93.58
2018-07-05T04:49:49.642Z,93.19
2018-07-05T04:50:49.620Z,94.16
2018-07-05T04:51:49.614Z,93.39
2018-07-05T04:52:49.604Z,93.87
2018-07-05T04:53:49.332Z,93.58
2018-07-05T04:54:49.583Z,93.87
2018-07-05T04:55:49.579Z,94.45
2018-07-05T04:56:49.563Z,94.83
2018-07-05T04:57:49.548Z,95.7
2018-07-05T04:58:49.542Z,95.4
2018-07-05T04:59:49.527Z,95.75
2018-07-05T05:00:49.524Z,95.98
2018-07-05T05:01:49.244Z,96.13
2018-07-05T05:02:49.504Z,96.22
2018-07-05T05:03:49.491Z,96.13
2018-07-05T05:04:49.211Z,96.99
2018-07-05T05:05:49.464Z,97.09
2018-07-05T05:06:49.456Z,96.13
2018-07-05T05:07:49.446Z,96.61
2018-07-05T05:08:49.637Z,96.8
2018-07-05T05:09:49.424Z,97.09
2018-07-05T05:10:49.154Z,96.94
2018-07-05T05:11:49.140Z,96.56
2018-07-05T05:12:49.135Z,96.75
2018-07-05T05:13:49.386Z,96.94
2018-07-05T05:14:49.109Z,96.94
2018-07-05T05:15:49.101Z,98
2018-07-05T05:16:49.358Z,98.19
2018-07-05T05:17:49.344Z,98.1
2018-07-05T05:18:49.117Z,98.68
2018-07-05T05:19:49.332Z,97.14
2018-07-05T05:20:49.315Z,97.52
2018-07-05T05:21:49.307Z,98.19
2018-07-05T05:22:49.032Z,98
2018-07-05T05:23:49.285Z,98.1
2018-07-05T05:24:49.013Z,97.91
2018-07-05T05:25:49.268Z,98.05
2018-07-05T05:26:48.995Z,98.39
2018-07-05T05:27:49.249Z,98.29
2018-07-05T05:28:49.235Z,98.19
2018-07-05T05:29:49.237Z,98.24
2018-07-05T05:30:49.220Z,97.86
2018-07-05T05:31:49.215Z,96.89
2018-07-05T05:32:48.931Z,97.76
2018-07-05T05:33:49.187Z,97.76
2018-07-05T05:34:48.913Z,97.67
2018-07-05T05:35:49.173Z,98.24
2018-07-05T05:36:49.166Z,98.14
2018-07-05T05:37:48.888Z,98.54
2018-07-05T05:38:49.199Z,98.34
2018-07-05T05:39:49.130Z,98.14
2018-07-05T05:40:48.857Z,98.14
2018-07-05T05:41:49.110Z,97.96
2018-07-05T05:42:48.838Z,98.34
2018-07-05T05:43:49.094Z,97.57
2018-07-05T05:44:48.821Z,98.44
2018-07-05T05:45:48.815Z,98.44
2018-07-05T05:46:49.066Z,98.92
2018-07-05T05:47:49.230Z,98.54
2018-07-05T05:48:49.046Z,99.11
2018-07-05T05:49:49.035Z,99.3
2018-07-05T05:50:48.759Z,99.4
2018-07-05T05:51:49.016Z,99.88
2018-07-05T05:52:49.014Z,99.3
2018-07-05T05:53:49.000Z,99.49
2018-07-05T05:54:48.989Z,99.3
2018-07-05T05:55:48.715Z,99.78
2018-07-05T05:56:48.972Z,99.99
2018-07-05T05:57:48.698Z,99.99
2018-07-05T05:58:48.958Z,99.4
2018-07-05T05:59:48.943Z,99.3
2018-07-05T06:00:48.668Z,99.99
2018-07-05T06:01:48.997Z,99.93
2018-07-05T06:02:48.921Z,99.99
2018-07-05T06:03:48.910Z,99.99
2018-07-05T06:04:48.896Z,99.99
2018-07-05T06:05:48.627Z,99.99
2018-07-05T06:06:48.615Z,99.99
2018-07-05T06:07:48.871Z,99.99
2018-07-05T06:08:48.602Z,99.99
2018-07-05T06:09:48.587Z,99.99
2018-07-05T06:10:48.577Z,99.99
2018-07-05T06:11:48.840Z,99.99
2018-07-05T06:12:48.822Z,99.99
2018-07-05T06:13:48.821Z,99.99
2018-07-05T06:14:48.809Z,99.99
2018-07-05T06:15:48.536Z,99.99
2018-07-05T06:16:48.788Z,99.99
2018-07-05T06:17:48.515Z,99.99
2018-07-05T06:18:48.773Z,99.99
2018-07-05T06:19:48.496Z,99.99
2018-07-05T06:20:48.485Z,99.99
2018-07-05T06:21:48.743Z,99.99
2018-07-05T06:22:48.735Z,99.99
2018-07-05T06:23:48.727Z,99.99
2018-07-05T06:24:48.716Z,99.99
2018-07-05T06:25:48.441Z,99.99
2018-07-05T06:26:48.698Z,99.99
2018-07-05T06:27:48.425Z,99.99
2018-07-05T06:28:48.679Z,99.99
2018-07-05T06:29:48.407Z,99.99
2018-07-05T06:30:48.402Z,99.99
2018-07-05T06:31:48.654Z,99.99
2018-07-05T06:32:48.644Z,99.99
2018-07-05T06:33:48.370Z,99.99
2018-07-05T06:34:48.630Z,99.99
2018-07-05T06:35:48.615Z,99.99
2018-07-05T06:36:48.357Z,99.99
2018-07-05T06:37:48.360Z,99.99
2018-07-05T06:38:48.338Z,99.99
2018-07-05T06:39:48.595Z,99.99
2018-07-05T06:40:48.319Z,99.99
2018-07-05T06:41:48.306Z,99.99
2018-07-05T06:42:48.561Z,99.99
2018-07-05T06:43:48.290Z,99.99
2018-07-05T06:44:48.288Z,99.99
2018-07-05T06:45:48.270Z,99.99
2018-07-05T06:46:48.528Z,99.99
2018-07-05T06:47:48.259Z,99.99
2018-07-05T06:48:48.250Z,99.99
2018-07-05T06:49:48.242Z,99.99
2018-07-05T06:50:48.502Z,99.99
2018-07-05T06:51:48.492Z,99.99
2018-07-05T06:52:48.486Z,99.99
2018-07-05T06:53:48.210Z,99.99
2018-07-05T06:54:48.472Z,99.99
2018-07-05T06:55:48.459Z,99.99
2018-07-05T06:56:48.457Z,99.99
2018-07-05T06:57:48.445Z,99.99
2018-07-05T06:58:48.435Z,99.99
2018-07-05T06:59:48.429Z,99.99
2018-07-05T07:00:48.157Z,99.99
2018-07-05T07:01:48.416Z,99.99
2018-07-05T07:02:48.407Z,99.99
2018-07-05T07:03:48.139Z,99.99
2018-07-05T07:04:48.393Z,99.99
2018-07-05T07:05:48.116Z,99.99
2018-07-05T07:06:48.111Z,99.99
2018-07-05T07:07:48.364Z,99.99
2018-07-05T07:08:48.362Z,99.99
2018-07-05T07:09:48.087Z,99.99
2018-07-05T07:10:48.343Z,99.99
2018-07-05T07:11:48.339Z,99.99
2018-07-05T07:12:48.328Z,99.99
2018-07-05T07:13:48.323Z,99.99
2018-07-05T07:14:48.316Z,99.99
2018-07-05T07:15:48.306Z,99.99
2018-07-05T07:16:48.315Z,99.99
2018-07-05T07:17:48.029Z,99.99
2018-07-05T07:18:48.286Z,99.99
2018-07-05T07:19:48.018Z,99.99
2018-07-05T07:20:48.273Z,99.99
2018-07-05T07:21:47.998Z,99.99
2018-07-05T07:22:48.257Z,99.99
2018-07-05T07:23:47.984Z,99.99
2018-07-05T07:24:48.243Z,99.99
2018-07-05T07:25:47.969Z,99.99
2018-07-05T07:26:48.232Z,99.99
2018-07-05T07:27:48.221Z,99.99
2018-07-05T07:28:48.211Z,99.99
2018-07-05T07:29:48.201Z,99.99
2018-07-05T07:30:48.195Z,99.99
2018-07-05T07:31:48.010Z,99.99
2018-07-05T07:32:47.922Z,99.99
2018-07-05T07:33:47.911Z,99.99
2018-07-05T07:34:48.171Z,99.99
2018-07-05T07:35:47.899Z,99.99
2018-07-05T07:36:47.887Z,99.99
2018-07-05T07:37:47.876Z,99.99
2018-07-05T07:38:48.138Z,99.99
2018-07-05T07:39:47.866Z,99.99
2018-07-05T07:40:48.128Z,99.99
2018-07-05T07:41:48.111Z,99.99
2018-07-05T07:42:48.316Z,99.99
2018-07-05T07:43:48.103Z,99.99
2018-07-05T07:44:48.094Z,99.99
2018-07-05T07:45:48.263Z,99.99
2018-07-05T07:46:48.082Z,99.99
2018-07-05T07:47:48.073Z,99.99
2018-07-05T07:48:48.074Z,99.99
2018-07-05T07:49:47.797Z,99.99
2018-07-05T07:50:48.052Z,99.99
2018-07-05T07:51:47.782Z,99.99
2018-07-05T07:52:48.040Z,99.99
2018-07-05T07:53:48.035Z,99.99
2018-07-05T07:54:48.036Z,99.99
2018-07-05T07:55:48.033Z,99.99
2018-07-05T07:56:48.020Z,99.99
2018-07-05T07:57:48.007Z,99.99
2018-07-05T07:58:48.008Z,99.99
2018-07-05T07:59:48.048Z,99.99
2018-07-05T08:00:47.987Z,99.99
2018-07-05T08:01:47.982Z,99.99
2018-07-05T08:02:47.714Z,99.99
2018-07-05T08:03:47.976Z,99.99
2018-07-05T08:04:47.706Z,99.99
2018-07-05T08:05:47.703Z,99.99
2018-07-05T08:06:47.953Z,99.99
2018-07-05T08:07:47.689Z,99.99
2018-07-05T08:08:47.949Z,99.99
2018-07-05T08:09:47.939Z,99.99
2018-07-05T08:10:47.937Z,99.99
2018-07-05T08:11:47.666Z,99.99
2018-07-05T08:12:47.665Z,95.33
2018-07-05T08:13:47.921Z,90.52
2018-07-05T08:14:47.655Z,95.18
2018-07-05T08:15:47.652Z,92.8
2018-07-05T08:16:48.213Z,93.97
2018-07-05T08:17:47.912Z,92.61
2018-07-05T08:18:47.903Z,91.78
2018-07-05T08:19:47.904Z,86.96
2018-07-05T08:20:47.626Z,84.08
2018-07-05T08:21:47.887Z,84.57
2018-07-05T08:22:47.895Z,84.96
2018-07-05T08:23:47.616Z,83.6
2018-07-05T08:24:47.875Z,84.28
2018-07-05T08:25:47.873Z,82.53
2018-07-05T08:26:47.871Z,81.56
2018-07-05T08:27:47.872Z,82.23
2018-07-05T08:28:47.864Z,81.36
2018-07-05T08:29:47.864Z,78.09
2018-07-05T08:30:47.595Z,76.24
2018-07-05T08:31:47.857Z,77.54
2018-07-05T08:32:47.857Z,77.21
2018-07-05T08:33:47.852Z,78.77
2018-07-05T08:34:47.852Z,80.04
2018-07-05T08:35:47.852Z,78.09
2018-07-05T08:36:47.850Z,77.31
2018-07-05T08:37:47.969Z,77.4
2018-07-05T08:38:47.837Z,77.47
2018-07-05T08:39:47.882Z,76.59
2018-07-05T08:40:47.573Z,77.23
2018-07-05T08:41:47.832Z,78.5
2018-07-05T08:42:47.826Z,78.2
2018-07-05T08:43:47.825Z,76.84
2018-07-05T08:44:47.925Z,78.5
2018-07-05T08:45:47.819Z,79.63
2018-07-05T08:46:47.812Z,79.72
2018-07-05T08:47:47.546Z,80.36
2018-07-05T08:48:47.813Z,80.17
2018-07-05T08:49:47.801Z,81.53
2018-07-05T08:50:47.799Z,84.55
2018-07-05T08:51:47.798Z,86.15
2018-07-05T08:52:47.795Z,86.54
2018-07-05T08:53:47.791Z,85.77
2018-07-05T08:54:47.789Z,87.12
2018-07-05T08:55:47.782Z,89.7
2018-07-05T08:56:47.791Z,87.18
2018-07-05T08:57:47.776Z,87.76
2018-07-05T08:58:47.519Z,91.06
2018-07-05T08:59:47.782Z,90.19
2018-07-05T09:00:47.767Z,89.61
2018-07-05T09:01:47.765Z,86.4
2018-07-05T09:02:47.771Z,84.31
2018-07-05T09:03:47.761Z,82.21
2018-07-05T09:04:47.756Z,79.33
2018-07-05T09:05:47.760Z,74.65
2018-07-05T09:06:47.496Z,70.72
2018-07-05T09:07:47.765Z,69.39
2018-07-05T09:08:47.755Z,68.55
2018-07-05T09:09:47.755Z,68.49
2018-07-05T09:10:47.494Z,66.47
2018-07-05T09:11:47.769Z,65.63
2018-07-05T09:12:47.757Z,64.29
2018-07-05T09:13:47.494Z,64.09
2018-07-05T09:14:47.761Z,64.03
2018-07-05T09:15:47.495Z,64.61
2018-07-05T09:16:47.756Z,65.46
2018-07-05T09:17:47.733Z,65.36
2018-07-05T09:18:47.494Z,65.17
2018-07-05T09:19:47.498Z,65.75
2018-07-05T09:20:47.763Z,64.16
2018-07-05T09:21:47.768Z,64.22
2018-07-05T09:22:47.505Z,64.68
2018-07-05T09:23:47.572Z,65.04
2018-07-05T09:24:47.506Z,65.82
2018-07-05T09:25:47.508Z,66.66
2018-07-05T09:26:47.555Z,66.47
2018-07-05T09:27:47.511Z,65.2
2018-07-05T09:28:47.773Z,65.69
2018-07-05T09:29:47.513Z,66.08
2018-07-05T09:30:47.775Z,66.86
2018-07-05T09:31:47.506Z,67.74
2018-07-05T09:32:47.772Z,68.26
2018-07-05T09:33:47.772Z,68.32
2018-07-05T09:34:47.771Z,68.8
2018-07-05T09:35:47.780Z,69.49
2018-07-05T09:36:47.773Z,70.27
2018-07-05T09:37:47.776Z,68.23
2018-07-05T09:38:47.773Z,69.84
2018-07-05T09:39:47.512Z,70.43
2018-07-05T09:40:47.511Z,68.48
2018-07-05T09:41:47.513Z,69
2018-07-05T09:42:47.709Z,67.96
2018-07-05T09:43:47.778Z,67.22
2018-07-05T09:44:47.777Z,67.51
2018-07-05T09:45:47.514Z,66.86
2018-07-05T09:46:47.513Z,66.96
2018-07-05T09:47:47.526Z,66.56
2018-07-05T09:48:47.513Z,68.49
2018-07-05T09:49:47.515Z,68.68
2018-07-05T09:50:47.783Z,67.86
2018-07-05T09:51:47.517Z,69.82
2018-07-05T09:52:47.935Z,70.27
2018-07-05T09:53:47.777Z,70.66
2018-07-05T09:54:47.513Z,71.05
2018-07-05T09:55:47.776Z,71.73
2018-07-05T09:56:47.513Z,68.13
2018-07-05T09:57:47.771Z,65.69
2018-07-05T09:58:47.775Z,66.34
2018-07-05T09:59:47.505Z,66.6
2018-07-05T10:00:47.507Z,68.55
2018-07-05T10:01:47.773Z,68.16
2018-07-05T10:02:47.769Z,68.61
2018-07-05T10:03:47.968Z,69.48
2018-07-05T10:04:47.768Z,70.17
2018-07-05T10:05:47.763Z,69.48
2018-07-05T10:06:47.763Z,68.71
2018-07-05T10:07:47.503Z,67.9
2018-07-05T10:08:47.759Z,69.65
2018-07-05T10:09:47.758Z,70.32
2018-07-05T10:10:47.752Z,75.78
2018-07-05T10:11:47.751Z,74.06
2018-07-05T10:12:47.747Z,74.71
2018-07-05T10:13:47.954Z,73.73
2018-07-05T10:14:47.745Z,74.22
2018-07-05T10:15:47.773Z,74.45
2018-07-05T10:16:47.478Z,75.13
2018-07-05T10:17:47.747Z,72.99
2018-07-05T10:18:47.477Z,76.3
2018-07-05T10:19:47.744Z,74.68
2018-07-05T10:20:47.472Z,73.51
2018-07-05T10:21:47.731Z,70.33
2018-07-05T10:22:47.733Z,69.59
2018-07-05T10:23:47.468Z,69.84
2018-07-05T10:24:47.726Z,71.5
2018-07-05T10:25:47.726Z,72.15
2018-07-05T10:26:47.771Z,73.41
2018-07-05T10:27:47.459Z,73.02
2018-07-05T10:28:47.730Z,73.18
2018-07-05T10:29:47.720Z,75.03
2018-07-05T10:30:47.453Z,74.65
2018-07-05T10:31:47.718Z,72.7
2018-07-05T10:32:47.754Z,73.28
2018-07-05T10:33:47.724Z,73.83
2018-07-05T10:34:47.712Z,72.17
2018-07-05T10:35:47.713Z,74.41
2018-07-05T10:36:47.444Z,74.02
2018-07-05T10:37:47.445Z,74.71
2018-07-05T10:38:47.700Z,74.22
2018-07-05T10:39:47.830Z,73.24
2018-07-05T10:40:47.433Z,73.54
2018-07-05T10:41:47.699Z,75.35
2018-07-05T10:42:47.698Z,74.86
2018-07-05T10:43:47.425Z,73.02
2018-07-05T10:44:47.687Z,74.18
2018-07-05T10:45:47.685Z,74.96
2018-07-05T10:46:47.686Z,76.22
2018-07-05T10:47:47.682Z,73.02
2018-07-05T10:48:47.685Z,74.08
2018-07-05T10:49:47.677Z,74.82
2018-07-05T10:50:47.407Z,72.33
2018-07-05T10:51:47.403Z,72.33
2018-07-05T10:52:47.677Z,72.11
2018-07-05T10:53:47.669Z,72.2
2018-07-05T10:54:47.393Z,72.11
2018-07-05T10:55:47.658Z,72.39
2018-07-05T10:56:47.399Z,72.3
2018-07-05T10:57:47.388Z,72.3
2018-07-05T10:58:47.383Z,73.08
2018-07-05T10:59:47.647Z,73.75
2018-07-05T11:00:47.373Z,73.85
2018-07-05T11:01:47.385Z,74.96
2018-07-05T11:02:47.371Z,74.28
2018-07-05T11:03:47.375Z,72.92
2018-07-05T11:04:47.361Z,73.11
2018-07-05T11:05:47.633Z,72.63
2018-07-05T11:06:47.618Z,72.53
2018-07-05T11:07:47.613Z,74.48
2018-07-05T11:08:47.349Z,73.3
2018-07-05T11:09:47.610Z,72.14
2018-07-05T11:10:47.611Z,72.43
2018-07-05T11:11:47.608Z,73.3
2018-07-05T11:12:47.596Z,74.67
2018-07-05T11:13:47.598Z,72.72
2018-07-05T11:14:47.767Z,73.11
2018-07-05T11:15:47.588Z,72.43
2018-07-05T11:16:47.776Z,71.36
2018-07-05T11:17:47.582Z,72.82
2018-07-05T11:18:47.583Z,71.4
2018-07-05T11:19:47.311Z,72.47
2018-07-05T11:20:47.303Z,71.69
2018-07-05T11:21:47.577Z,72.27
2018-07-05T11:22:47.300Z,70.56
2018-07-05T11:23:47.556Z,69.29
2018-07-05T11:24:47.559Z,68.22
2018-07-05T11:25:47.552Z,68.12
2018-07-05T11:26:47.285Z,69.58
2018-07-05T11:27:47.543Z,68.9
2018-07-05T11:28:47.544Z,68.71
2018-07-05T11:29:47.276Z,68.02
2018-07-05T11:30:47.537Z,69.2
2018-07-05T11:31:47.531Z,69.39
2018-07-05T11:32:47.530Z,68.22
2018-07-05T11:33:47.268Z,68.71
2018-07-05T11:34:47.532Z,69.29
2018-07-05T11:35:47.529Z,69.68
2018-07-05T11:36:47.257Z,69.2
2018-07-05T11:37:47.518Z,68.84
2018-07-05T11:38:47.251Z,67.86
2018-07-05T11:39:47.513Z,68.16
2018-07-05T11:40:47.511Z,68.45
2018-07-05T11:41:47.508Z,68.45
2018-07-05T11:42:47.938Z,69.42
2018-07-05T11:43:47.503Z,69.07
2018-07-05T11:44:47.235Z,67.9
2018-07-05T11:45:47.503Z,67.02
2018-07-05T11:46:47.626Z,66.44
2018-07-05T11:47:47.553Z,66.53
2018-07-05T11:48:47.236Z,68.16
2018-07-05T11:49:47.223Z,67.57
2018-07-05T11:50:47.488Z,68.06
2018-07-05T11:51:47.221Z,68.16
2018-07-05T11:52:47.480Z,67.99
2018-07-05T11:53:47.478Z,67.99
2018-07-05T11:54:47.497Z,67.99
2018-07-05T11:55:47.211Z,68.97
2018-07-05T11:56:47.481Z,68.19
2018-07-05T11:57:47.203Z,67.7
2018-07-05T11:58:47.271Z,66.66
2018-07-05T11:59:47.472Z,65.92
2018-07-05T12:00:47.462Z,67.18
2018-07-05T12:01:47.203Z,66.34
2018-07-05T12:02:47.519Z,64.29
2018-07-05T12:03:47.457Z,63.15
2018-07-05T12:04:47.466Z,64.78
2018-07-05T12:05:47.459Z,64.29
2018-07-05T12:06:47.460Z,63.93
2018-07-05T12:07:47.194Z,64.03
2018-07-05T12:08:47.590Z,63.38
2018-07-05T12:09:47.199Z,62.7
2018-07-05T12:10:47.459Z,61.82
2018-07-05T12:11:47.191Z,63.09
2018-07-05T12:12:47.460Z,64.19
2018-07-05T12:13:47.189Z,62.36
2018-07-05T12:14:47.193Z,60.24
2018-07-05T12:15:47.458Z,62.1
2018-07-05T12:16:47.459Z,60.17
2018-07-05T12:17:47.199Z,59.78
2018-07-05T12:18:47.468Z,58.22
2018-07-05T12:19:47.467Z,58.93
2018-07-05T12:20:47.466Z,59.19
2018-07-05T12:21:47.206Z,58.54
2018-07-05T12:22:47.475Z,60.5
2018-07-05T12:23:47.206Z,59.22
2018-07-05T12:24:47.210Z,57.95
2018-07-05T12:25:47.484Z,58.93
2018-07-05T12:26:47.214Z,59
2018-07-05T12:27:47.219Z,57.63
2018-07-05T12:28:47.484Z,58.97
2018-07-05T12:29:47.221Z,59.66
2018-07-05T12:30:47.491Z,60.5
2018-07-05T12:31:47.491Z,60.11
2018-07-05T12:32:47.490Z,61.77
2018-07-05T12:33:47.507Z,60.18
2018-07-05T12:34:47.231Z,60.38
2018-07-05T12:35:47.503Z,61.06
2018-07-05T12:36:47.502Z,60.35
2018-07-05T12:37:47.237Z,61.72
2018-07-05T12:38:47.241Z,60.08
2018-07-05T12:39:47.241Z,60.94
2018-07-05T12:40:47.239Z,60.06
2018-07-05T12:41:47.241Z,59.47
2018-07-05T12:42:47.506Z,61.06
2018-07-05T12:43:47.507Z,60.55
2018-07-05T12:44:47.507Z,60.81
2018-07-05T12:45:47.256Z,61.4
2018-07-05T12:46:47.512Z,63.12
2018-07-05T12:47:47.245Z,62.15
2018-07-05T12:48:47.245Z,62.89
2018-07-05T12:49:47.507Z,63.96
2018-07-05T12:50:47.509Z,63.09
2018-07-05T12:51:47.256Z,62.7
2018-07-05T12:52:47.520Z,62.89
2018-07-05T12:53:47.513Z,61.53
2018-07-05T12:54:47.241Z,62.02